Date,TemperatureHighF,TemperatureAvgF,TemperatureLowF,DewpointHighF,DewpointAvgF,DewpointLowF,HumidityHigh,HumidityAvg,HumidityLow,PressureMaxIn,PressureMinIn,WindSpeedMaxMPH,WindSpeedAvgMPH,GustSpeedMaxMPH,PrecipitationSumIn
2014-1-1,49.7,33.2,23.3,29.0,23.5,19.9,91,70,35,30.41,30.15,0,0,0,0.00
2014-1-2,39.3,32.6,25.7,35.7,29.5,22.7,96,88,66,30.15,29.65,0,0,0,0.14
2014-1-3,32.4,21.6,15.2,22.2,6.9,2.5,80,53,35,30.52,29.76,0,0,0,0.00
2014-1-4,37.7,24.6,11.4,21.2,13.7,9.0,94,66,34,30.56,30.32,0,0,0,0.00
2014-1-5,37.7,33.5,30.0,36.7,30.1,19.9,97,88,64,30.32,29.74,0,0,0,0.19
2014-1-6,45.3,30.2,5.7,44.1,19.5,-10.2,97,66,43,30.20,29.63,0,0,0,0.06
2014-1-7,20.7,11.1,2.4,3.8,-5.9,-12.0,61,46,30,30.53,30.20,0,0,0,0.00
2014-1-8,41.7,24.3,7.1,18.2,9.6,0.6,89,57,30,30.64,30.50,0,0,0,0.00
2014-1-9,48.6,34.7,23.2,24.9,20.3,16.0,85,58,33,30.60,30.49,0,0,0,0.00
2014-1-10,38.9,36.2,33.0,37.9,31.9,21.6,96,86,57,30.52,30.14,0,0,0,0.75
2014-1-11,52.9,44.6,37.2,51.3,42.3,34.0,98,92,58,30.14,29.53,0,0,0,0.82
2014-1-12,54.1,44.7,31.3,35.4,30.6,27.7,88,59,39,30.14,29.69,0,0,0,0.00
2014-1-13,55.6,40.3,25.8,40.5,32.7,24.3,96,76,48,30.13,29.92,0,0,0,0.01
2014-1-14,53.1,44.0,33.8,43.9,38.8,30.8,96,83,54,29.97,29.75,0,0,0,0.29
2014-1-15,48.4,36.6,27.5,37.5,30.6,24.6,96,80,58,29.99,29.88,0,0,0,0.00
2014-1-16,40.3,34.1,27.0,25.0,17.9,13.0,74,52,35,30.05,29.91,0,0,0,0.00
2014-1-17,50.0,34.1,21.7,32.1,23.8,18.8,90,68,39,29.99,29.83,0,0,0,0.00
2014-1-18,33.8,27.2,22.1,23.3,13.9,7.1,77,57,44,30.04,29.89,0,0,0,0.00
2014-1-19,45.9,35.3,22.5,29.9,23.9,17.3,83,64,49,29.98,29.88,0,0,0,0.00
2014-1-20,59.4,46.1,31.9,28.1,24.8,20.0,77,44,27,29.88,29.74,0,0,0,0.00
2014-1-21,39.6,31.9,20.9,30.5,26.2,11.3,93,80,65,29.89,29.60,0,-9,0,0.00
2014-1-22,23.3,18.9,13.9,12.5,3.2,-2.9,74,51,32,30.13,29.88,0,0,0,0.00
2014-1-23,27.7,20.3,11.0,14.7,6.4,-2.0,74,55,40,30.53,30.12,0,0,0,0.00
2014-1-24,25.2,12.1,6.2,0.0,-3.5,-5.0,63,51,28,30.64,30.19,0,-150,0,0.00
2014-1-25,33.6,26.1,17.2,26.0,9.8,-2.0,90,51,34,30.18,29.63,0,-624,0,0.00
2014-1-26,48.5,37.3,22.4,20.6,8.8,-99.9,50,32,17,29.95,29.78,0,-171,0,0.00
2014-1-27,54.7,35.8,22.1,35.1,19.8,-2.0,82,54,29,30.19,29.77,0,-4,0,0.00
2014-1-28,22.1,16.3,13.5,13.0,4.6,-5.0,87,62,32,30.40,30.18,0,0,0,0.00
2014-1-29,24.9,16.8,9.8,12.7,1.2,-8.0,88,53,30,30.42,30.24,0,0,0,0.00
2014-1-30,32.6,17.0,1.6,9.6,4.1,-1.7,87,60,28,30.50,30.27,0,-3,0,0.00
2014-1-31,55.2,31.8,14.4,21.5,14.8,7.9,87,57,16,30.27,30.14,0,0,0,0.00
2014-2-1,57.9,39.8,24.1,26.5,22.0,18.9,87,54,22,30.29,30.06,0,0,0,0.00
2014-2-2,67.2,49.1,31.0,50.0,37.7,24.2,83,65,50,30.07,29.97,0,0,0,0.00
2014-2-3,48.8,43.5,37.4,45.0,40.6,35.7,96,90,75,30.29,29.88,0,0,0,1.37
2014-2-4,38.5,35.1,32.4,36.7,31.6,28.8,95,87,77,30.45,30.14,0,-3,0,0.09
2014-2-5,59.6,38.6,31.8,48.4,33.1,23.4,97,82,52,30.15,29.75,0,-4,0,0.02
2014-2-6,40.5,33.8,28.7,23.8,20.5,17.0,67,58,45,30.34,30.14,0,0,0,0.00
2014-2-7,42.2,33.1,26.9,24.5,22.3,20.0,86,65,44,30.38,30.28,0,0,0,0.00
2014-2-8,40.4,33.9,27.3,29.1,25.0,22.5,86,70,55,30.33,30.17,0,0,0,0.00
2014-2-9,46.4,40.0,34.1,36.4,31.6,27.0,83,72,63,30.20,29.99,0,0,0,0.00
2014-2-10,39.2,34.6,28.1,29.5,21.8,13.8,71,59,44,30.29,30.07,0,0,0,0.00
2014-2-11,35.7,27.1,19.7,18.2,16.1,14.0,85,64,44,30.45,30.28,0,0,0,0.00
2014-2-12,24.1,20.9,18.4,21.6,15.4,10.0,94,80,57,30.50,29.98,0,-44,0,0.00
2014-2-13,39.6,30.8,23.0,35.1,26.9,21.1,96,87,54,29.98,29.50,0,-12,0,0.15
2014-2-14,54.7,43.1,35.3,29.1,23.0,16.8,76,47,25,29.74,29.62,0,-7,0,0.13
2014-2-15,38.4,33.5,25.1,35.1,24.8,14.0,95,72,48,30.08,29.58,0,-3,0,0.04
2014-2-16,44.9,34.1,24.4,28.7,22.0,14.0,73,61,49,30.22,30.01,0,0,0,0.00
2014-2-17,38.7,31.9,22.8,25.7,21.1,17.6,82,65,48,30.42,30.21,0,-4,0,0.00
2014-2-18,58.3,42.7,26.2,29.1,23.7,17.0,91,53,20,30.22,30.07,0,0,0,0.00
2014-2-19,66.3,49.7,34.0,49.0,37.3,26.9,95,65,41,30.10,29.85,0,-7,0,0.10
2014-2-20,50.6,42.3,35.1,35.3,32.3,29.0,89,69,49,30.25,29.96,0,0,0,0.00
2014-2-21,59.4,49.9,35.6,57.0,34.7,10.6,96,62,16,30.03,29.75,0,0,0,0.37
2014-2-22,64.2,49.2,34.8,28.9,22.8,15.4,71,39,17,30.17,30.02,0,-4,0,0.00
2014-2-23,68.9,51.5,30.3,35.8,28.1,23.0,83,46,18,30.08,29.86,0,0,0,0.00
2014-2-24,50.6,43.1,34.5,34.7,19.2,6.9,66,41,19,30.15,29.92,0,0,0,0.00
2014-2-25,45.2,35.8,28.3,23.4,17.9,10.0,73,49,31,30.11,29.99,0,0,0,0.00
2014-2-26,40.6,33.2,25.6,23.9,18.1,11.8,78,55,34,30.00,29.84,0,0,0,0.00
2014-2-27,45.5,31.3,20.0,14.4,8.2,-1.0,77,42,16,30.07,29.76,0,0,0,0.00
2014-2-28,36.6,26.9,19.8,15.8,10.5,3.8,73,50,35,30.36,30.07,0,-3,0,0.00
2014-3-1,52.2,35.0,21.5,25.6,19.6,12.5,81,56,32,30.40,30.23,0,0,0,0.00
2014-3-2,68.2,50.5,32.4,52.8,39.9,24.7,95,69,44,30.24,29.86,0,0,0,0.09
2014-3-3,52.8,32.9,19.8,51.2,30.7,15.0,100,91,79,30.34,29.80,0,-35,0,0.60
2014-3-4,32.0,25.0,15.2,20.6,13.1,7.6,86,62,37,30.44,30.26,0,-92,0,0.07
2014-3-5,49.0,34.1,22.4,30.4,23.8,19.3,90,69,39,30.36,30.16,0,0,0,0.09
2014-3-6,37.7,31.7,26.6,25.8,20.1,15.5,92,63,45,30.47,30.28,0,0,0,0.00
2014-3-7,43.1,33.1,27.4,35.2,30.3,25.6,100,90,72,30.28,29.98,0,0,0,0.26
2014-3-8,68.4,46.5,26.7,42.5,32.2,25.5,96,64,25,30.07,29.94,0,0,0,0.07
2014-3-9,60.3,51.9,40.0,38.7,33.2,25.1,69,50,27,30.09,29.96,0,0,0,0.00
2014-3-10,71.3,54.1,35.4,40.9,29.5,21.0,71,42,21,30.01,29.76,0,0,0,0.00
2014-3-11,76.9,62.1,44.8,40.8,37.2,30.0,74,42,20,29.78,29.62,0,0,0,0.00
2014-3-12,68.4,52.0,36.4,58.5,41.9,21.8,92,69,54,29.65,29.15,0,-3,0,0.05
2014-3-13,38.8,31.9,26.1,22.0,10.0,3.7,59,41,23,30.25,29.62,0,0,0,0.00
2014-3-14,59.1,42.0,21.2,23.2,18.1,11.4,82,44,20,30.30,30.01,0,0,0,0.00
2014-3-15,67.8,56.0,43.4,36.5,28.3,22.5,57,36,21,30.05,29.92,0,0,0,0.00
2014-3-16,45.9,38.2,31.9,36.7,30.8,28.0,95,76,50,30.09,29.95,0,-4,0,0.25
2014-3-17,31.7,28.8,27.7,30.2,27.1,25.9,95,93,90,30.08,29.92,0,-4,0,0.00
2014-3-18,39.3,33.3,27.8,36.0,31.5,26.6,96,93,86,30.24,30.05,0,0,0,0.33
2014-3-19,46.4,38.3,33.0,43.3,36.8,31.8,96,94,87,30.24,29.93,0,0,0,0.06
2014-3-20,59.5,51.7,44.1,43.6,29.3,15.7,93,47,19,30.05,29.92,0,0,0,0.00
2014-3-21,69.7,52.7,34.7,33.0,27.3,21.1,70,41,17,30.12,29.98,0,-3,0,0.00
2014-3-22,69.3,58.3,48.8,41.8,35.3,28.4,68,43,34,30.00,29.89,0,0,0,0.00
2014-3-23,50.4,44.7,36.7,40.9,32.8,19.0,93,65,43,30.18,29.96,0,0,0,0.26
2014-3-24,49.5,36.7,26.5,23.0,15.6,10.0,72,43,23,30.32,30.08,0,-3,0,0.00
2014-3-25,38.1,32.0,27.4,33.7,25.8,19.4,94,79,53,30.10,29.83,0,0,0,0.24
2014-3-26,41.5,32.1,26.4,25.2,12.5,7.0,83,46,26,30.36,30.01,0,-3,0,0.01
2014-3-27,55.8,39.0,21.3,25.2,20.4,13.9,88,52,26,30.48,30.23,0,0,0,0.00
2014-3-28,61.0,54.6,47.3,52.7,46.1,24.4,88,74,39,30.23,30.06,0,-3,0,0.00
2014-3-29,59.5,54.9,47.7,58.7,53.5,44.3,97,95,87,30.10,29.56,0,0,0,0.78
2014-3-30,48.7,43.4,36.8,44.2,31.6,24.0,92,64,42,30.00,29.61,0,0,0,0.06
2014-3-31,70.8,54.5,43.4,37.6,26.2,14.9,69,35,21,30.15,30.00,0,0,0,0.00
2014-4-1,78.7,57.0,35.0,42.9,37.0,31.3,91,54,23,30.17,29.95,0,0,0,0.00
2014-4-2,84.0,67.1,45.1,52.8,43.1,36.8,81,46,23,30.06,29.94,0,-4,0,0.01
2014-4-3,71.4,59.8,46.8,54.6,48.7,41.0,89,68,52,30.08,29.87,0,0,0,0.05
2014-4-4,74.8,63.9,53.4,59.9,55.3,50.8,96,76,52,29.93,29.65,0,0,0,0.02
2014-4-5,65.1,54.6,46.5,50.9,35.2,28.0,63,49,33,30.12,29.77,0,0,0,0.00
2014-4-6,58.7,48.6,31.8,40.2,31.9,27.9,89,54,37,30.25,30.10,0,0,0,0.00
2014-4-7,52.5,45.3,42.7,46.9,43.3,39.0,97,93,61,30.12,29.64,0,0,0,1.41
2014-4-8,62.9,54.3,44.9,51.2,42.1,36.0,98,66,43,29.73,29.56,0,0,0,0.01
2014-4-9,63.1,55.3,44.4,40.2,36.9,34.0,76,51,36,30.10,29.71,0,-78,0,0.00
2014-4-10,70.6,54.8,33.5,44.0,36.1,31.7,95,56,27,30.25,30.09,0,-3,0,0.00
2014-4-11,77.0,65.2,49.4,48.8,41.3,36.0,70,43,29,30.13,29.96,0,-3,0,0.00
2014-4-12,76.8,64.0,47.3,56.1,49.2,41.1,87,60,42,30.22,30.06,0,0,0,0.00
2014-4-13,79.8,66.9,48.8,58.4,52.8,45.8,92,63,42,30.14,30.00,0,0,0,0.00
2014-4-14,71.2,66.2,61.3,59.8,57.4,54.0,94,74,63,30.00,29.77,0,0,0,0.05
2014-4-15,66.7,52.7,34.4,63.3,47.9,22.0,96,84,57,30.06,29.57,0,0,0,1.44
2014-4-16,51.9,39.4,29.4,30.0,23.2,18.1,84,54,31,30.50,30.05,0,0,0,0.00
2014-4-17,58.8,42.2,26.5,35.1,28.9,24.7,94,64,29,30.62,30.45,0,0,0,0.00
2014-4-18,52.7,44.4,35.2,43.2,38.6,31.5,93,81,66,30.50,30.28,0,0,0,0.00
2014-4-19,62.8,52.5,44.0,46.8,43.7,41.4,95,74,49,30.28,30.21,0,0,0,0.00
2014-4-20,67.0,54.4,41.3,44.6,38.0,30.6,93,59,27,30.35,30.23,0,-4,0,0.00
2014-4-21,73.8,55.2,34.4,46.9,39.5,32.6,95,61,28,30.25,29.90,0,0,0,0.00
2014-4-22,76.2,62.9,46.5,55.9,49.9,38.2,89,64,44,29.90,29.64,0,0,0,0.00
2014-4-23,66.3,58.6,50.1,50.2,33.7,28.3,57,40,27,30.00,29.68,0,0,0,0.00
2014-4-24,70.5,54.8,36.0,44.3,35.8,29.6,90,52,27,30.14,29.96,0,0,0,0.00
2014-4-25,68.2,55.1,42.8,61.9,49.0,40.0,95,81,61,29.98,29.69,0,0,0,0.09
2014-4-26,80.2,66.0,50.3,49.8,43.1,35.3,75,46,25,29.96,29.83,0,0,0,0.00
2014-4-27,82.5,65.5,47.4,55.2,48.9,42.3,84,58,30,30.03,29.86,0,0,0,0.00
2014-4-28,63.8,54.5,49.7,50.9,47.3,42.6,96,78,57,30.03,29.94,0,0,0,0.37
2014-4-29,50.2,49.2,47.6,50.0,48.1,46.5,100,96,95,30.10,29.96,0,0,0,1.05
2014-4-30,65.6,56.4,50.0,63.5,55.3,49.0,100,96,92,30.10,29.84,0,0,0,0.21
2014-5-1,77.4,66.0,56.6,60.3,52.6,33.9,98,67,31,29.88,29.72,0,0,0,0.00
2014-5-2,71.9,60.4,44.9,46.2,40.1,35.0,83,49,30,29.91,29.79,0,0,0,0.00
2014-5-3,73.0,59.2,47.1,50.0,44.5,39.0,92,62,31,29.90,29.80,0,-270,0,0.00
2014-5-4,81.2,69.8,47.2,49.8,45.3,41.0,86,44,28,29.97,29.79,0,-149,0,0.00
2014-5-5,65.8,59.1,53.1,57.8,52.0,46.0,93,78,60,30.06,29.86,0,-4,0,0.08
2014-5-6,73.9,59.9,45.6,62.5,54.3,44.5,97,83,64,30.02,29.88,0,0,0,0.00
2014-5-7,78.2,66.2,56.7,64.3,58.4,52.0,96,78,50,30.16,30.02,0,-3,0,0.00
2014-5-8,88.7,72.0,55.0,68.3,56.4,43.3,97,65,22,30.15,30.02,0,0,0,0.00
2014-5-9,85.5,70.7,55.9,66.9,60.0,53.0,95,72,42,30.09,29.94,0,0,0,0.05
2014-5-10,73.3,67.8,61.9,67.4,62.1,58.5,95,82,70,30.08,29.96,0,0,0,0.66
2014-5-11,82.3,68.6,55.7,64.2,59.8,54.2,97,76,46,30.14,30.01,0,0,0,0.00
2014-5-12,88.3,72.8,55.5,69.7,61.9,54.0,97,73,42,30.15,30.05,0,0,0,0.00
2014-5-13,90.2,75.1,59.9,72.8,63.7,58.6,97,72,37,30.11,30.01,0,0,0,0.00
2014-5-14,85.0,71.0,60.8,73.9,66.6,59.0,96,87,52,30.12,30.00,0,-4,0,0.02
2014-5-15,68.7,65.7,57.4,66.9,63.8,54.8,96,94,90,30.05,29.82,0,0,0,1.19
2014-5-16,67.9,57.6,51.2,55.1,45.7,41.1,92,66,39,30.05,29.85,0,0,0,0.04
2014-5-17,64.4,54.8,40.9,44.5,40.2,35.0,92,60,37,30.20,30.03,0,0,0,0.00
2014-5-18,67.5,55.8,43.0,45.8,41.8,36.0,93,63,36,30.26,30.16,0,-4,0,0.00
2014-5-19,69.5,55.9,41.7,51.3,45.7,40.0,96,72,45,30.34,30.20,0,0,0,0.00
2014-5-20,78.7,63.0,45.1,60.1,52.7,43.8,96,73,35,30.25,30.04,0,-4,0,0.00
2014-5-21,83.4,74.4,64.5,65.4,61.0,57.3,82,64,49,30.04,29.88,0,-4,0,0.00
2014-5-22,84.5,76.2,67.4,65.2,61.0,56.7,80,60,47,29.92,29.84,0,0,0,0.00
2014-5-23,81.3,70.3,64.2,61.5,53.8,40.8,86,59,25,30.03,29.90,0,0,0,0.00
2014-5-24,78.1,65.6,50.6,57.8,50.7,45.5,89,61,39,30.13,30.02,0,0,0,0.00
2014-5-25,80.0,65.6,49.2,60.6,55.5,47.5,97,73,46,30.19,30.09,0,0,0,0.00
2014-5-26,87.4,71.4,53.9,67.2,60.0,52.5,97,71,34,30.16,30.00,0,0,0,0.00
2014-5-27,83.9,74.5,62.9,71.7,65.0,60.0,92,73,55,30.04,29.91,0,0,0,0.01
2014-5-28,88.3,75.0,61.4,70.5,65.0,59.5,95,73,46,29.99,29.90,0,0,0,0.00
2014-5-29,72.6,66.5,63.2,66.0,64.0,61.8,96,92,74,30.10,29.97,0,-4,0,0.08
2014-5-30,78.4,68.9,63.8,69.7,64.8,62.0,97,88,71,30.14,30.03,0,0,0,0.00
2014-5-31,79.0,69.7,61.1,64.2,59.4,54.5,96,72,46,30.21,30.10,0,0,0,0.00
2014-6-1,74.6,65.9,57.4,60.4,56.8,54.4,92,74,53,30.32,30.20,0,0,0,0.00
2014-6-2,82.3,67.0,49.9,64.4,56.6,48.5,97,72,48,30.27,30.07,0,0,0,0.00
2014-6-3,82.3,69.9,56.4,68.0,62.3,54.7,95,78,54,30.09,29.91,0,0,0,0.00
2014-6-4,82.8,74.3,66.5,74.6,67.7,62.9,94,80,63,29.92,29.70,0,0,0,0.34
2014-6-5,82.0,73.1,63.7,69.5,63.8,56.3,95,74,52,29.87,29.64,0,-3,0,0.00
2014-6-6,82.9,70.1,61.1,64.2,58.3,52.5,93,67,47,29.96,29.86,0,0,0,0.00
2014-6-7,81.3,69.8,57.9,67.7,62.1,56.4,96,78,57,30.04,29.92,0,0,0,0.00
2014-6-8,80.0,71.1,60.2,71.2,66.1,58.8,97,85,71,29.96,29.82,0,0,0,0.00
2014-6-9,85.9,74.4,64.7,69.6,66.3,63.0,96,78,52,29.89,29.81,0,-4,0,0.02
2014-6-10,88.4,77.0,65.9,71.9,67.9,63.5,95,76,46,29.91,29.84,0,0,0,0.00
2014-6-11,87.5,74.2,63.8,71.7,67.2,62.1,96,81,54,29.94,29.79,0,0,0,0.85
2014-6-12,80.7,71.4,65.6,73.1,67.6,63.8,97,88,68,29.92,29.77,0,-7,0,0.06
2014-6-13,84.5,71.6,60.8,70.6,63.7,59.6,97,78,49,29.88,29.76,0,0,0,0.00
2014-6-14,82.7,71.9,59.0,62.0,55.3,47.0,87,59,31,30.07,29.88,0,-7,0,0.00
2014-6-15,85.0,68.9,52.4,68.4,60.2,50.8,96,76,54,30.21,30.06,0,0,0,0.00
2014-6-16,87.8,74.5,62.7,75.2,67.8,61.0,95,81,51,30.16,30.06,0,0,0,0.11
2014-6-17,93.0,75.3,63.7,73.6,67.7,62.5,97,80,44,30.14,30.01,0,0,0,0.27
2014-6-18,94.4,79.0,63.8,75.7,68.3,62.3,96,73,42,30.08,29.98,0,0,0,0.00
2014-6-19,89.8,79.5,66.0,73.7,69.1,64.2,95,72,49,30.04,29.97,0,0,0,0.00
2014-6-20,86.5,74.6,67.9,75.1,69.1,66.0,96,84,59,30.03,29.88,0,0,0,0.14
2014-6-21,88.0,74.6,66.8,73.0,68.4,65.6,97,83,51,29.92,29.78,0,0,0,0.01
2014-6-22,79.6,72.9,67.4,71.1,68.0,65.7,95,85,71,30.00,29.83,0,0,0,0.00
2014-6-23,80.4,71.8,64.8,70.0,66.5,63.1,96,84,69,30.11,29.98,0,0,0,0.00
2014-6-24,80.0,69.3,64.8,71.9,66.3,63.0,95,91,76,30.12,30.08,0,0,0,0.00
2014-7-12,85.4,79.1,72.6,71.9,69.2,68.8,90,72,59,30.10,30.08,0,0,0,0.00
2014-7-13,87.8,77.2,66.7,76.3,70.1,64.7,95,80,59,30.10,29.94,0,0,0,0.07
2014-7-14,92.4,78.8,70.2,74.8,71.4,68.4,94,79,51,29.96,29.81,0,0,0,0.06
2014-7-15,83.1,74.5,67.4,71.8,68.4,65.0,95,82,62,29.84,29.73,0,0,0,0.00
2014-7-16,80.5,70.5,63.3,65.2,56.7,51.0,94,64,38,29.95,29.79,0,0,0,0.00
2014-7-17,82.0,69.4,57.7,60.2,54.3,49.3,91,61,37,30.11,29.95,0,0,0,0.00
2014-7-18,77.6,67.2,56.3,67.8,62.0,54.9,96,85,65,30.21,30.11,0,0,0,0.02
2014-7-19,75.8,68.8,63.7,66.3,63.5,59.8,97,84,59,30.18,30.09,0,0,0,0.02
2014-7-20,77.5,70.4,65.2,68.8,65.7,63.0,94,85,70,30.12,30.05,0,0,0,0.00
2014-7-21,78.7,71.7,67.6,72.4,68.7,66.0,96,91,77,30.16,30.06,0,0,0,0.11
2014-7-22,86.5,76.2,69.6,72.7,70.1,68.0,97,83,57,30.17,30.05,0,0,0,0.04
2014-7-23,92.8,78.4,64.9,74.6,69.6,63.7,97,77,48,30.08,29.85,0,0,0,0.00
2014-7-24,84.2,73.2,68.0,72.7,68.7,66.3,95,86,64,29.97,29.80,0,0,0,0.53
2014-7-25,80.6,72.0,62.7,69.5,65.9,61.0,96,82,64,30.06,29.96,0,0,0,0.00
2014-7-26,89.8,78.2,66.4,71.8,67.0,58.4,96,72,37,30.01,29.88,0,0,0,0.00
2014-7-27,84.0,76.4,70.1,74.4,69.8,65.5,93,81,64,29.90,29.69,0,0,0,0.02
2014-7-28,78.4,74.6,65.0,68.5,61.6,57.0,78,65,52,29.88,29.67,0,0,0,0.00
2014-7-29,79.8,67.7,55.9,63.3,57.6,51.9,94,72,39,30.02,29.85,0,0,0,0.00
2014-7-30,79.1,67.0,54.0,62.1,56.4,52.0,94,71,45,30.09,30.01,0,0,0,0.00
2014-7-31,81.7,68.2,55.3,67.0,61.3,53.9,97,81,55,30.14,30.07,0,0,0,0.00
2014-8-1,70.4,66.2,62.2,67.0,64.2,60.7,96,93,88,30.17,30.10,0,0,0,0.63
2014-8-2,73.4,66.2,61.3,67.4,63.6,60.0,96,92,79,30.15,30.06,0,0,0,0.04
2014-8-3,82.8,70.8,59.4,67.2,63.4,58.0,97,79,52,30.11,30.01,0,0,0,0.00
2014-8-4,84.5,70.8,57.9,66.4,62.0,56.0,96,76,44,30.11,30.02,0,0,0,0.00
2014-8-5,87.3,73.0,61.5,71.7,65.1,60.0,97,78,49,30.07,29.94,0,0,0,0.00
2014-8-6,87.2,73.2,60.1,71.4,65.7,58.4,96,79,47,29.98,29.86,0,0,0,0.09
2014-8-7,82.8,72.6,62.6,68.9,65.6,61.2,97,81,54,30.03,29.92,0,0,0,0.00
2014-8-8,74.9,69.4,65.0,70.2,66.8,63.4,96,92,80,30.11,30.03,0,0,0,0.24
2014-8-9,66.1,64.1,62.1,64.6,62.8,60.7,97,96,94,30.13,30.06,0,0,0,2.44
2014-8-10,69.8,66.4,64.1,67.9,65.2,62.9,97,96,93,30.14,30.07,0,0,0,0.17
2014-8-11,70.3,68.1,66.6,68.8,66.9,65.4,97,96,93,30.09,29.97,0,0,0,0.81
2014-8-12,80.3,71.1,67.0,75.0,69.3,63.6,97,94,79,29.97,29.75,0,0,0,0.36
2014-8-13,76.4,69.5,60.1,64.5,60.7,57.4,92,74,60,29.98,29.81,0,0,0,0.00
2014-8-14,78.8,67.1,53.6,65.2,59.9,52.0,97,79,55,30.02,29.92,0,0,0,0.00
2014-8-15,81.7,71.0,62.5,69.8,64.8,60.7,96,82,61,30.02,29.91,0,0,0,0.00
2014-8-16,84.8,69.6,54.9,69.0,61.3,53.0,95,77,49,30.05,29.95,0,0,0,0.00
2014-8-17,84.4,72.1,62.7,74.2,66.2,60.1,94,82,62,30.00,29.92,0,0,0,0.00
2014-8-18,75.7,70.2,66.8,71.6,68.3,65.0,96,94,85,29.94,29.77,0,0,0,0.91
2014-8-19,78.3,72.7,68.8,74.0,70.6,67.6,97,93,81,29.89,29.77,0,0,0,0.46
2014-8-20,89.3,75.7,66.9,75.5,70.3,65.4,97,85,55,29.99,29.89,0,0,0,0.00
2014-8-21,88.8,75.1,65.4,75.0,68.8,63.9,96,82,55,30.07,29.97,0,0,0,0.81
2014-8-22,82.2,73.4,66.0,76.8,71.2,64.8,97,93,81,30.02,29.92,0,0,0,0.03
2014-8-23,81.4,75.1,70.1,75.4,72.0,68.6,96,91,77,29.99,29.89,0,0,0,1.26
2014-8-24,73.0,67.9,64.6,69.0,65.5,63.4,96,92,79,30.14,29.99,0,0,0,0.63
2014-8-25,77.4,67.5,58.2,65.1,61.6,57.0,97,83,55,30.16,30.09,0,0,0,0.00
2014-8-26,79.8,66.3,54.9,67.7,60.4,53.6,99,83,54,30.19,30.10,0,0,0,0.00
2014-8-27,85.5,69.8,54.4,72.3,62.7,53.0,97,81,50,30.11,29.95,0,0,0,0.00
2014-8-28,88.8,77.2,66.3,74.1,69.4,64.2,94,78,55,30.02,29.93,0,0,0,0.00
2014-8-29,79.2,71.1,65.2,70.0,63.1,57.3,92,76,63,30.16,30.02,0,0,0,0.00
2014-8-30,87.3,76.0,68.1,76.0,71.4,67.0,96,86,64,30.19,30.07,0,0,0,0.00
2014-8-31,87.3,77.1,68.5,77.2,71.7,66.9,96,84,66,30.12,30.00,0,0,0,0.01
2014-9-1,88.6,75.7,70.2,74.0,70.5,68.6,95,85,56,30.06,29.97,0,0,0,0.00
2014-9-2,92.2,78.9,68.3,75.0,70.8,67.0,94,78,50,30.02,29.88,0,0,0,0.04
2014-9-3,84.9,74.8,67.5,75.0,70.0,66.0,96,86,64,30.09,29.92,0,0,0,0.04
2014-9-4,83.3,73.4,66.9,76.0,70.2,66.0,97,90,73,30.15,30.07,0,0,0,1.07
2014-9-5,85.2,73.3,68.2,76.0,70.4,67.0,97,91,71,30.17,30.05,0,0,0,0.01
2014-9-6,84.7,73.8,67.4,76.0,70.1,66.0,97,88,70,30.07,29.92,0,0,0,0.04
2014-9-7,71.9,68.6,65.4,69.0,66.2,64.0,96,92,83,30.13,29.95,0,0,0,0.02
2014-9-8,70.7,66.0,62.5,65.2,62.4,57.2,95,88,79,30.18,30.10,0,0,0,0.02
2014-9-9,75.4,67.1,61.0,68.6,63.6,59.4,95,89,76,30.16,30.07,0,0,0,0.01
2014-9-10,76.3,69.3,63.2,69.8,66.4,61.8,96,91,75,30.13,29.99,0,0,0,0.00
2014-9-11,87.9,73.5,63.2,75.8,68.5,61.8,97,86,59,30.01,29.88,0,0,0,0.56
2014-9-12,71.5,68.9,65.6,70.4,67.1,63.7,97,94,90,30.12,29.96,0,0,0,0.00
2014-9-13,73.7,65.6,61.4,68.3,61.8,53.7,97,88,70,30.22,30.06,0,0,0,0.31
2014-9-14,67.9,61.6,56.8,58.2,55.0,50.4,95,79,64,30.31,30.20,0,0,0,0.00
2014-9-15,73.4,64.1,53.3,67.3,60.7,52.2,97,89,75,30.24,30.05,0,0,0,0.00
2014-9-16,76.2,67.6,59.0,66.8,62.2,57.7,96,84,66,30.05,29.94,0,0,0,0.00
2014-9-17,71.5,63.7,56.8,62.5,58.1,54.7,95,82,65,30.04,29.93,0,0,0,0.00
2014-9-18,74.4,64.3,54.8,65.8,60.5,53.4,97,88,68,30.06,29.94,0,0,0,0.00
2014-9-19,65.2,62.6,61.2,63.3,61.1,59.0,96,95,92,30.26,30.06,0,0,0,0.37
2014-9-20,77.6,66.0,58.7,64.3,60.5,57.5,97,84,57,30.25,30.02,0,0,0,0.00
2014-9-21,82.7,68.0,53.9,69.7,62.1,52.5,97,83,57,30.05,29.74,0,0,0,0.01
2014-9-22,71.3,63.3,53.8,56.0,52.6,49.9,92,69,51,30.18,29.86,0,0,0,0.00
2014-9-23,60.0,55.7,50.0,53.7,50.3,47.0,94,82,72,30.38,30.18,0,0,0,0.00
2014-9-24,65.1,58.4,52.3,59.1,54.4,48.5,94,87,74,30.42,30.31,0,0,0,0.01
2014-9-25,73.0,64.5,58.6,66.0,60.6,56.9,95,88,73,30.31,30.18,0,0,0,0.01
2014-9-26,71.0,64.5,57.0,64.0,61.2,55.4,95,89,76,30.25,30.17,0,0,0,0.00
2014-9-27,74.4,62.4,52.6,61.6,56.5,51.5,97,83,55,30.26,30.17,0,0,0,0.00
2014-9-28,74.8,62.0,50.1,64.2,57.4,48.8,97,86,63,30.21,30.07,0,0,0,0.00
2014-9-29,72.9,64.2,59.4,67.1,61.8,58.0,97,92,71,30.07,29.92,0,0,0,0.03
2014-9-30,80.9,66.2,57.5,67.8,61.1,56.6,97,86,50,29.94,29.83,0,0,0,0.02
2014-10-1,74.6,65.5,59.8,66.5,62.2,58.3,97,90,73,30.04,29.91,0,0,0,0.00
2014-10-2,78.9,65.4,55.7,68.7,61.7,54.5,97,89,60,30.12,30.01,0,0,0,0.00
2014-10-3,74.8,66.3,61.2,66.0,63.4,59.8,97,91,63,30.05,29.70,0,0,0,0.20
2014-10-4,65.3,55.8,41.7,64.1,44.0,31.3,96,66,39,29.88,29.66,0,0,0,0.00
2014-10-5,64.0,48.9,34.9,43.8,38.5,33.3,96,71,34,30.00,29.84,0,0,0,0.00
2014-10-6,71.2,54.5,38.7,57.1,47.8,37.4,100,80,50,30.05,29.93,0,0,0,0.01
2014-10-7,70.0,59.9,52.3,60.0,56.0,50.5,95,87,65,30.08,29.92,0,0,0,0.56
2014-10-8,76.0,63.8,50.2,59.5,53.8,47.5,95,73,40,30.06,29.90,0,0,0,0.11
2014-10-9,77.9,59.9,45.5,61.7,52.2,44.0,97,79,44,30.17,30.02,0,0,0,0.00
2014-10-10,67.3,60.0,52.5,60.9,57.6,51.1,97,92,76,30.09,29.98,0,0,0,0.09
2014-10-11,61.9,59.0,55.5,61.0,58.0,54.0,97,96,96,30.15,29.94,0,0,0,0.04
2014-10-12,55.4,53.5,52.0,54.3,52.3,50.3,97,96,93,30.27,30.14,0,0,0,0.28
2014-10-13,61.0,57.0,52.7,59.9,56.1,51.8,98,97,94,30.29,30.15,0,0,0,0.22
2014-10-14,77.9,69.7,60.6,70.6,66.7,59.8,98,91,74,30.16,29.81,0,0,0,0.13
2014-10-15,71.0,62.4,55.2,68.5,59.9,52.0,96,91,80,29.83,29.74,0,0,0,0.76
2014-10-16,66.2,56.3,48.4,55.6,51.2,47.0,96,84,62,29.85,29.73,0,0,0,0.00
2014-10-17,73.3,60.2,47.9,57.1,52.0,45.9,95,76,52,29.90,29.74,0,0,0,0.00
2014-10-18,64.2,59.5,52.4,56.1,49.2,44.5,88,69,53,29.93,29.72,0,0,0,0.00
2014-10-19,62.8,52.1,40.3,45.0,40.5,36.2,94,66,39,30.15,29.93,0,0,0,0.00
2014-10-20,68.8,51.8,36.1,53.2,45.1,34.7,97,80,54,30.14,29.95,0,0,0,0.00
2014-10-21,64.3,56.7,49.4,52.7,47.4,41.0,92,72,51,29.97,29.84,0,0,0,0.00
2014-10-22,59.7,52.9,48.6,45.9,42.1,39.0,73,67,56,30.08,29.95,0,0,0,0.01
2014-10-23,63.1,53.7,48.4,45.5,42.4,40.0,75,66,51,30.08,29.97,0,0,0,0.00
2014-10-24,69.1,55.2,45.2,50.3,43.1,37.0,85,65,37,30.07,29.95,0,0,0,0.00
2014-10-25,73.1,60.1,46.1,52.4,43.8,37.8,76,56,35,30.03,29.83,0,0,0,0.00
2014-10-26,72.3,60.3,41.8,52.7,38.4,16.1,85,52,14,29.98,29.77,0,0,0,0.00
2014-10-27,78.3,56.6,38.4,52.2,43.5,34.1,91,66,34,30.12,29.97,0,0,0,0.00
2014-10-28,82.4,63.3,45.4,59.8,51.5,43.8,96,70,33,30.10,29.97,0,0,0,0.00
2014-10-29,66.8,60.4,49.8,58.3,50.0,39.9,91,69,49,30.00,29.92,0,0,0,0.00
2014-10-30,61.6,47.8,35.7,42.3,38.7,34.0,96,73,44,30.10,29.99,0,0,0,0.00
2014-10-31,55.7,43.7,33.7,44.6,38.5,32.2,96,83,56,30.05,29.81,0,0,0,0.03
2014-11-1,49.6,44.9,41.3,43.1,38.6,30.9,95,79,58,30.02,29.78,0,0,0,0.45
2014-11-2,48.7,41.7,37.0,31.5,24.9,21.6,69,52,36,30.34,30.00,0,0,0,0.00
2014-11-3,66.9,48.7,30.6,34.8,26.7,18.8,81,46,16,30.42,30.30,0,0,0,0.00
2014-11-4,73.7,55.3,39.1,44.4,36.0,24.3,82,51,21,30.30,30.17,0,0,0,0.00
2014-11-5,66.6,57.6,48.4,49.0,42.3,33.1,81,58,36,30.25,30.07,0,0,0,0.00
2014-11-6,68.8,56.2,48.8,57.0,45.8,36.0,95,71,34,30.07,29.70,0,0,0,0.03
2014-11-7,51.5,46.0,32.8,38.3,34.3,28.9,87,64,48,30.08,29.82,0,0,0,0.00
2014-11-8,54.3,40.8,26.5,37.1,32.0,25.0,96,73,48,30.11,29.95,0,0,0,0.00
2014-11-9,61.7,46.3,35.1,43.5,37.7,32.5,93,74,47,30.05,29.92,0,0,0,0.00
2014-11-10,65.0,46.6,31.6,46.1,38.8,30.1,97,77,47,30.15,30.05,0,0,0,0.00
2014-11-11,70.6,49.2,32.5,52.0,42.4,31.0,100,80,47,30.10,29.92,0,0,0,0.00
2014-11-12,64.5,52.2,41.5,50.8,41.1,31.8,95,69,41,30.09,29.91,0,0,0,0.00
2014-11-13,48.9,44.0,35.5,39.6,34.5,26.7,76,69,59,30.12,30.00,0,0,0,0.00
2014-11-14,35.5,31.0,26.0,27.9,16.6,13.0,74,55,43,30.38,30.10,0,0,0,0.00
2014-11-15,41.4,31.3,24.5,24.0,16.5,13.8,78,55,33,30.50,30.37,0,0,0,0.00
2014-11-16,48.0,39.7,32.5,33.4,25.4,18.9,73,57,39,30.39,30.05,0,0,0,0.00
2014-11-17,48.9,40.9,34.0,45.7,36.3,21.2,96,84,59,30.05,29.59,0,0,0,0.55
2014-11-18,34.0,25.6,18.2,20.7,8.9,4.0,68,49,35,30.33,29.89,0,0,0,0.00
2014-11-19,39.5,29.2,18.2,15.1,11.8,6.8,75,49,34,30.39,30.17,0,0,0,0.00
2014-11-20,52.4,41.0,29.6,28.9,22.3,14.0,67,48,32,30.18,30.00,0,0,0,0.00
2014-11-21,42.8,33.3,22.5,17.8,13.3,7.0,80,45,24,30.57,30.17,0,0,0,0.00
2014-11-22,52.1,33.3,17.7,23.2,18.7,14.0,88,59,28,30.57,30.33,0,0,0,0.00
2014-11-23,47.1,37.5,27.7,44.1,32.2,21.7,96,82,53,30.33,29.72,0,0,0,1.00
2014-11-24,69.3,58.5,45.2,56.5,52.4,44.1,97,82,61,29.85,29.68,0,0,0,0.01
2014-11-25,60.7,51.8,43.1,53.0,35.6,24.5,84,56,30,30.11,29.85,0,0,0,0.00
2014-11-26,43.5,38.1,31.4,40.4,36.1,30.0,96,93,76,30.10,29.97,0,0,0,1.14
2014-11-27,44.4,36.3,31.5,38.9,29.5,19.0,100,78,55,30.29,30.02,0,0,0,0.01
2014-11-28,37.9,32.0,24.4,23.0,21.2,17.6,89,65,50,30.40,30.28,0,0,0,0.00
2014-11-29,49.4,34.3,23.3,33.0,27.4,21.0,100,77,49,30.32,30.21,0,0,0,0.00
2014-11-30,65.5,47.5,28.6,46.5,37.6,26.5,93,70,48,30.26,30.15,0,0,0,0.00
2014-12-1,70.1,60.4,50.8,55.7,51.2,45.0,93,72,58,30.31,30.21,0,0,0,0.02
2014-12-2,55.7,38.7,36.0,54.0,37.2,34.2,96,95,92,30.50,30.31,0,0,0,0.46
2014-12-3,61.4,46.6,37.7,52.8,42.2,34.0,97,86,60,30.35,30.12,0,0,0,0.00
2014-12-4,47.4,41.4,36.9,40.8,37.3,33.7,99,86,61,30.46,30.29,0,0,0,0.10
2014-12-5,44.1,40.9,38.0,41.1,38.8,36.6,95,92,83,30.52,30.34,0,0,0,0.01
2014-12-6,51.7,45.7,40.5,49.1,43.5,39.2,97,93,71,30.35,30.02,0,0,0,0.11
2014-12-7,49.5,42.6,31.9,40.5,28.7,20.8,75,59,33,30.50,30.22,0,0,0,0.00
2014-12-8,39.5,34.8,30.4,34.0,27.1,17.0,95,74,50,30.54,30.22,0,0,0,0.05
2014-12-9,49.0,41.1,34.5,40.4,35.8,33.2,95,82,65,30.22,29.94,0,0,0,0.07
2014-12-10,44.8,40.4,34.3,34.4,29.3,23.0,74,64,54,30.02,29.95,0,0,0,0.00
2014-12-11,44.5,36.5,30.3,23.0,17.5,11.7,67,48,28,30.14,29.98,0,0,0,0.00
2014-12-12,51.2,43.9,36.9,18.2,15.3,12.8,44,32,23,30.22,30.10,0,0,0,0.00
2014-12-13,57.0,44.8,30.6,28.5,22.7,14.4,67,43,28,30.16,30.05,0,0,0,0.00
2014-12-14,52.7,43.6,34.9,37.0,33.4,28.0,89,68,53,30.10,30.02,0,0,0,0.00
2014-12-15,54.8,41.4,29.5,41.0,35.2,27.9,95,80,58,30.16,30.05,0,0,0,0.00
2014-12-16,56.0,44.0,31.8,48.8,38.8,30.0,96,83,59,30.07,29.85,0,0,0,0.05
2014-12-17,52.2,47.2,40.3,38.9,33.1,25.0,73,58,41,30.10,29.98,0,0,0,0.00
2014-12-18,41.2,37.8,34.2,29.5,25.9,20.0,76,62,49,30.20,30.08,0,0,0,0.00
2014-12-19,46.4,38.9,33.2,28.8,25.4,20.0,73,59,47,30.25,30.12,0,0,0,0.00
2014-12-20,38.2,33.2,28.0,30.4,27.2,24.0,89,78,67,30.33,30.23,0,0,0,0.00
2014-12-21,45.9,38.3,34.2,35.5,32.6,29.7,88,80,62,30.35,30.24,0,0,0,0.00
2014-12-22,38.8,35.8,33.5,35.9,33.1,30.3,96,90,79,30.28,30.07,0,0,0,0.11
2014-12-23,43.4,40.6,36.9,42.4,39.5,35.8,100,96,94,30.10,29.99,0,0,0,0.20
2014-12-24,53.4,45.9,42.0,52.5,45.1,40.9,97,97,96,30.01,29.61,0,0,0,0.57
2014-12-25,52.2,44.3,28.7,50.9,34.8,26.9,96,70,53,30.27,29.65,0,0,0,0.00
2014-12-26,56.9,38.8,24.8,37.0,31.1,23.3,96,77,39,30.37,30.25,0,0,0,0.00
2014-12-27,65.1,46.8,30.3,41.5,33.2,27.8,94,65,25,30.32,30.12,0,0,0,0.00
2014-12-28,57.8,51.8,46.4,49.8,43.2,36.8,92,73,56,30.11,29.96,0,0,0,0.00
2014-12-29,48.5,41.6,36.0,46.4,40.3,34.9,96,95,91,30.26,30.05,0,0,0,0.46
2014-12-30,38.6,34.0,29.4,34.9,31.9,24.9,100,92,80,30.47,30.23,0,0,0,0.06
2014-12-31,39.8,31.6,24.6,25.0,20.2,17.0,92,64,42,30.49,30.34,0,0,0,0.00
2015-1-1,47.9,38.4,28.2,33.2,22.5,16.0,63,53,40,30.34,30.17,0,0,0,0.00
2015-1-2,47.0,44.1,40.6,38.0,35.9,33.1,87,73,63,30.40,30.19,0,0,0,0.00